Terminal Aerodrome Forecast
Issued by NWS

Home | Current Version | Previous Version | Text Only | Print | Product List | Glossary On
Versions: 1 2 3 4 5 6 7 8 9 10 11 12
000
FTUS45 KVEF 251126
TAFBIH
TAF
KBIH 251126Z 2512/2612 02007KT P6SM SKC
     FM251900 16010G18KT P6SM SKC
     FM260200 17007KT P6SM SKC
     FM260400 01007KT P6SM SKC=

USA.gov is the U.S. government's official web portal to all federal, state and local government web resources and services.